Querencia do Norte, Brazil
Current Conditions -  °F | °C
As of 5:00 AM on Tuesday 21 Oct 2014 (Local Time) from SBMG Reporting Station
Haze Haze  
Wind Chill: 68°   Ceiling: 9500
Heat Index: 68°   Visibility: 3mi
Dew Point: 64°   Wind: 7mph
Humidity: 88%   Direction: 90°E
Pressure: 30"   Gusts: NA
Location:  23.08°S, 53.48°W
Report Text: SBMG 210700Z 09006KT 5000 2000SW BR SCT014 BKN095 20/18 Q1016
Loading
Personal Weather Stations






























Interactive Weather Map
Tropical Storm Tracking
New forecast layout! Learn more

10-Day Weather Forecast

Advertisements
Track Severe Weather on mobile